Airport View

Enter AWOS ICAO identifier for current METAR.

ex. KFNL

KEUG 290354Z 00000KT 10SM CLR 21/11 A3000 RMK AO2 SLP157 T02060106

29 Sep 2020 04:06

Phone: 541-461-3114

Other Area AWOS: KCVO - K6S2 - KONP - KSLE

TAF KEUG 282339Z 2900/2924 01015G25KT P6SM SKC FM290200 02011KT P6SM SKC FM290400 03006KT P6SM SKC FM291000 VRB03KT P6SM SKC FM292100 23007KT P6SM SKC